x

Devils Island, Wi (disw3) Weather Station

1:00am - Wed 3rd Sep 2014 All times are CDT. -5 hours from GMT.

  • Wind
    13mph, 18mph gusts
  • Air Temp 62°f
  • Sea Pressure 1009.1mb
  • Devils Island, Wi
  • Devils Island, Wi

More Historic Weather Station data

Upgrade to MSW Pro to gain access to the past 30 days of data for over 8000 Wavebouys and Weather Stations around the globe.

Join Pro

Comparision Forecast

View Surf forecast
   
Wed 09/03 1:00am 13 18 mph 1009.1mb 62f
12:00am 13 18 mph 1009.3mb 60f
Tue 09/02 11:00pm 11 15 mph 1009.6mb 59f
10:00pm 14 20 mph 1009.7mb 59f
9:00pm 10 11 mph 1009.7mb 60f
8:00pm 9 11 mph 1009.3mb 62f
7:00pm 25 29 mph 1011.1mb 60f
6:00pm 15 21 mph 1009.9mb 62f
5:00pm 10 15 mph 1008.9mb 67f
4:00pm 14 16 mph 1008.6mb 68f
3:00pm 14 16 mph 1009mb 67f
2:00pm 16 20 mph 1009.1mb 67f
1:00pm 13 16 mph 1009.2mb 66f
12:00pm 14 15 mph 1009.5mb 64f
11:00am 18 22 mph 1009.6mb 62f
10:00am 20 22 mph 1009.5mb 61f
9:00am 16 21 mph 1009.3mb 60f
8:00am 18 22 mph 1009mb 60f
7:00am 17 21 mph 1008.7mb 61f
6:00am 18 20 mph 1008.3mb 61f
5:00am 17 22 mph 1008.1mb 62f
4:00am 17 21 mph 1007.8mb 62f
3:00am 13 16 mph 1007.5mb 62f
2:00am 11 13 mph 1007mb 62f
1:00am 13 15 mph 1007mb 63f
12:00am 14 15 mph 1006.8mb 63f
Mon 09/01 11:00pm 11 14 mph 1006.8mb 62f
10:00pm 15 17 mph 1006.4mb 64f
9:00pm 17 20 mph 1005.7mb 65f
8:00pm 17 20 mph 1005mb 65f
7:00pm 16 20 mph 1004.4mb 65f
6:00pm 16 18 mph 1004.2mb 66f
5:00pm 16 21 mph 1003.7mb 65f
4:00pm 18 21 mph 1003.4mb 65f
3:00pm 23 25 mph 1003.1mb 64f
2:00pm 21 24 mph 1002.8mb 64f
1:00pm 18 22 mph 1002.8mb 63f
12:00pm 20 22 mph 1002.5mb 63f
11:00am 14 17 mph 1002mb 62f
10:00am 16 17 mph 1001.6mb 63f
9:00am 16 18 mph 1001.5mb 63f
8:00am 16 18 mph 1001.8mb 63f
7:00am 15 17 mph 1001.3mb 63f
6:00am 17 18 mph 1000.5mb 63f
5:00am 11 14 mph 1000mb 63f
4:00am 14
mph
999.9mb 65f
3:00am 7 9 mph 1000.6mb 67f
2:00am 14 20 mph 1002.1mb 66f
1:00am 16 24 mph 1001.4mb 67f
12:00am 11 16 mph 1003mb 67f
Sun 08/31 11:00pm 16 24 mph 1003mb 67f
10:00pm 13 17 mph 1003mb 67f
9:00pm 5 6 mph 1003.2mb 69f
8:00pm 9
mph
1003.1mb 66f
7:00pm 9 10 mph 1004.2mb 65f
6:00pm 7 9 mph 1005.2mb 63f
5:00pm 11 13 mph 1005.9mb 63f
4:00pm 9 11 mph 1006.7mb 63f
3:00pm 13 14 mph 1007.4mb 63f
2:00pm 17 18 mph 1008.9mb 63f
1:00pm 15 16 mph 1010.2mb 62f
12:00pm 14 15 mph 1011.4mb 62f
11:00am 16 18 mph 1011.4mb 61f
10:00am 15 17 mph 1011.8mb 61f
9:00am 11 14 mph 1012.7mb 60f
8:00am 8 10 mph 1013mb 60f
7:00am 9 11 mph 1013mb 59f
6:00am 6 7 mph 1012.8mb 59f
5:00am 7
mph
1013.2mb 59f
4:00am 1 2 mph 1013.8mb 60f
3:00am  -  1 mph 1013.6mb 60f
2:00am 1
mph
1012.9mb 60f
1:00am  -  mph 1012.9mb 60f
12:00am 3 5 mph 1013.3mb 60f
Sat 08/30 11:00pm 1
mph
1013.3mb 60f
10:00pm 2
mph
1013.1mb 61f
9:00pm 5
mph
1013.3mb 61f
8:00pm 6
mph
1013.1mb 61f
7:00pm 5 6 mph 1012.4mb 61f
6:00pm 7 8 mph 1012.1mb 61f
5:00pm 7 8 mph 1012.2mb 61f
4:00pm 7 8 mph 1012mb 61f
3:00pm 8 9 mph 1012mb 60f
2:00pm 1 2 mph 1011.9mb 60f
1:00pm  -  1 mph 1011.6mb 61f
12:00pm  -  1 mph 1011.3mb 61f
11:00am 3 5 mph 1011.1mb 60f
10:00am 6
mph
1010.7mb 60f
9:00am 5
mph
1010.6mb 60f
8:00am 6
mph
1010.4mb 60f